Time;durP1;ratioP1;P1;durP2;ratioP2;P2;SDS_P1;SDS_P2;PMS_P1;PMS_P2;Temp;Humidity;BMP_temperature;BMP_pressure;BME280_temperature;BME280_humidity;BME280_pressure;Samples;Min_cycle;Max_cycle;Signal;HPM_P1;HPM_P2
2023/07/02 00:00:12;;;;;;;;;;;;;;;25.11;61.53;100057.59;5092499;28;20098;-79
2023/07/02 00:03:04;;;;;;;5.53;4.80;;;;;;;25.10;61.85;100047.66;5076118;28;20376;-80
2023/07/02 00:05:56;;;;;;;;;;;;;;;25.09;61.69;100050.91;5103554;28;20043;-79
2023/07/02 00:08:50;;;;;;;11.40;6.60;;;;;;;25.05;61.64;100050.94;5080021;28;19913;-79
2023/07/02 00:11:42;;;;;;;;;;;;;;;25.03;61.87;100061.75;5078172;28;20036;-79
2023/07/02 00:14:37;;;;;;;11.20;6.15;;;;;;;25.00;61.92;100053.44;5081496;28;19913;-80
2023/07/02 00:17:31;;;;;;;7.88;6.05;;;;;;;24.98;62.00;100058.69;5091764;28;20067;-79
2023/07/02 00:20:25;;;;;;;7.97;5.38;;;;;;;24.96;61.48;100056.31;5081204;28;20054;-79
2023/07/02 00:23:20;;;;;;;10.20;5.18;;;;;;;24.95;61.58;100057.53;5097326;28;20043;-79
2023/07/02 00:26:15;;;;;;;8.43;4.57;;;;;;;24.96;61.64;100061.88;5087171;28;20672;-79
2023/07/02 00:29:09;;;;;;;6.68;5.05;;;;;;;24.96;61.20;100064.66;5097237;28;20050;-79
2023/07/02 00:32:04;;;;;;;6.03;3.95;;;;;;;24.96;61.61;100063.88;5089072;28;20043;-79
2023/07/02 00:34:59;;;;;;;5.32;4.57;;;;;;;24.97;61.72;100060.69;5091070;28;20047;-80
2023/07/02 00:37:53;;;;;;;7.47;4.68;;;;;;;24.98;61.55;100061.47;5092489;28;20043;-79
2023/07/02 00:40:45;;;;;;;;;;;;;;;24.97;61.81;100063.47;5090867;28;20052;-80
2023/07/02 00:43:43;;;;;;;11.60;4.75;;;;;;;24.97;61.65;100065.44;5097693;28;19912;-79
2023/07/02 00:46:35;;;;;;;6.55;5.15;;;;;;;24.95;61.84;100059.50;5097952;28;20039;-79
2023/07/02 00:49:30;;;;;;;6.65;5.18;;;;;;;24.95;61.65;100065.09;5095709;28;20130;-80
2023/07/02 00:52:25;;;;;;;7.80;5.68;;;;;;;24.90;62.22;100066.38;5106923;28;20039;-87
2023/07/02 00:55:18;;;;;;;12.77;8.93;;;;;;;24.57;64.30;100056.28;5101651;28;20051;-82
2023/07/02 00:58:10;;;;;;;;;;;;;;;24.35;65.14;100063.44;5108392;28;20058;-83
2023/07/02 01:01:05;;;;;;;10.27;7.82;;;;;;;24.21;66.01;100065.28;5101053;28;19916;-82
2023/07/02 01:04:04;;;;;;;;;;;;;;;24.26;65.99;100062.00;5105464;28;20038;-82
2023/07/02 01:07:02;;;;;;;11.82;7.82;;;;;;;24.21;66.02;100065.28;5094650;28;20380;-82
2023/07/02 01:09:57;;;;;;;11.45;8.40;;;;;;;24.23;66.31;100050.94;5093702;28;20042;-82
2023/07/02 01:12:52;;;;;;;10.25;7.65;;;;;;;24.21;66.29;100050.59;5112046;28;20043;-82
2023/07/02 01:15:44;;;;;;;;;;;;;;;24.15;67.01;100064.16;5095889;28;20043;-81
2023/07/02 01:18:39;;;;;;;9.43;7.60;;;;;;;24.14;66.61;100047.91;5104944;28;19912;-81
2023/07/02 01:21:35;;;;;;;12.55;8.18;;;;;;;24.08;67.07;100044.03;5098396;28;20043;-82
2023/07/02 01:24:27;;;;;;;13.93;9.48;;;;;;;24.08;67.25;100044.81;5110470;28;20043;-82
2023/07/02 01:27:21;;;;;;;12.10;8.75;;;;;;;24.07;67.52;100053.59;5110260;28;20063;-82
2023/07/02 01:30:11;;;;;;;;;;;;;;;24.01;67.94;100052.50;5101462;28;20456;-82
2023/07/02 01:33:06;;;;;;;13.18;9.02;;;;;;;23.97;68.17;100043.44;5114901;28;19912;-82
2023/07/02 01:35:58;;;;;;;;;;;;;;;23.87;68.66;100042.41;5118308;28;20043;-82
2023/07/02 01:38:53;;;;;;;13.43;8.60;;;;;;;23.86;68.05;100049.97;5113086;28;19916;-82
2023/07/02 01:42:09;;;;;;;14.27;10.07;;;;;;;23.75;69.16;100041.00;5101292;28;20039;-83
2023/07/02 01:45:05;;;;;;;15.23;9.60;;;;;;;23.74;69.77;100047.75;5092418;28;20043;-82
2023/07/02 01:48:00;;;;;;;16.40;10.10;;;;;;;23.74;69.83;100042.22;5089118;28;20056;-82
2023/07/02 01:50:51;;;;;;;9.80;8.45;;;;;;;23.70;69.83;100033.16;5091380;28;20039;-82
2023/07/02 01:53:45;;;;;;;13.65;9.90;;;;;;;23.76;69.90;100045.38;5091250;28;20039;-82
2023/07/02 01:56:40;;;;;;;10.20;8.18;;;;;;;23.76;69.09;100044.56;5108021;28;20047;-82
2023/07/02 01:59:35;;;;;;;10.15;8.07;;;;;;;23.68;69.60;100043.88;5110510;28;20043;-83
2023/07/02 02:02:29;;;;;;;14.25;8.80;;;;;;;23.56;70.24;100040.91;5109559;28;20054;-81
2023/07/02 02:05:21;;;;;;;15.10;8.70;;;;;;;23.55;70.07;100037.34;5103117;28;20042;-82
2023/07/02 02:08:16;;;;;;;12.90;8.55;;;;;;;23.41;70.49;100041.09;5113076;28;20058;-82
2023/07/02 02:11:08;;;;;;;;;;;;;;;23.57;69.68;100042.50;5101960;28;20042;-82
2023/07/02 02:14:06;;;;;;;9.57;7.93;;;;;;;23.54;69.41;100044.09;5111984;28;19912;-82
2023/07/02 02:17:00;;;;;;;10.57;7.97;;;;;;;23.51;69.47;100050.50;5111526;28;20058;-81
2023/07/02 02:19:55;;;;;;;15.73;9.15;;;;;;;23.47;69.27;100040.66;5114496;28;20054;-81
2023/07/02 02:22:50;;;;;;;10.00;7.00;;;;;;;23.41;70.26;100034.78;5109386;28;20048;-81
2023/07/02 02:25:44;;;;;;;12.52;8.45;;;;;;;23.31;70.76;100044.03;5113839;28;20043;-81
2023/07/02 02:28:39;;;;;;;11.32;7.53;;;;;;;23.21;70.99;100037.41;5108547;28;20039;-81
2023/07/02 02:31:34;;;;;;;10.18;8.27;;;;;;;23.31;71.71;100036.50;5110830;28;20054;-81
2023/07/02 02:34:28;;;;;;;11.10;7.10;;;;;;;23.32;71.79;100031.72;5091766;28;20051;-81
2023/07/02 02:37:23;;;;;;;12.32;8.35;;;;;;;23.34;71.41;100045.97;5108209;28;20051;-81
2023/07/02 02:40:18;;;;;;;12.77;8.45;;;;;;;23.20;70.62;100037.84;5095320;28;20055;-81
2023/07/02 02:43:12;;;;;;;14.43;8.55;;;;;;;23.26;70.63;100042.47;5104462;28;20048;-81
2023/07/02 02:46:07;;;;;;;10.77;8.27;;;;;;;23.25;70.82;100054.03;5096390;28;20046;-81
2023/07/02 02:49:02;;;;;;;11.27;7.90;;;;;;;23.22;70.90;100044.53;5110718;28;20043;-82
2023/07/02 02:51:54;;;;;;;13.52;8.43;;;;;;;23.14;71.55;100036.72;5111027;28;20522;-81
2023/07/02 02:54:48;;;;;;;11.95;9.40;;;;;;;23.14;71.34;100053.38;5102503;28;20038;-81
2023/07/02 02:57:43;;;;;;;12.85;9.98;;;;;;;23.19;71.20;100058.47;5101276;28;20062;-82
2023/07/02 03:00:38;;;;;;;12.65;9.27;;;;;;;23.21;70.99;100067.16;5110572;28;20420;-81
2023/07/02 03:06:31;;;;;;;11.93;10.32;;;;;;;23.02;72.06;100055.50;5091639;28;20047;-83
2023/07/02 03:09:25;;;;;;;14.80;9.75;;;;;;;23.05;71.64;100061.41;5097455;28;20421;-83
2023/07/02 03:12:20;;;;;;;15.63;10.40;;;;;;;23.05;71.64;100058.66;5093735;28;20039;-84
2023/07/02 03:15:15;;;;;;;11.70;9.27;;;;;;;23.08;71.58;100055.03;5061516;28;20051;-83
2023/07/02 03:18:09;;;;;;;14.38;10.23;;;;;;;23.11;71.93;100063.28;5063766;28;20154;-82
2023/07/02 03:21:02;;;;;;;13.05;10.63;;;;;;;23.15;71.82;100068.81;5087192;28;20047;-84
2023/07/02 03:23:56;;;;;;;11.40;10.00;;;;;;;23.10;72.59;100069.28;5052716;28;20037;-83
2023/07/02 03:26:51;;;;;;;17.05;10.98;;;;;;;23.10;72.98;100066.50;5047634;28;20208;-84
2023/07/02 03:29:46;;;;;;;13.15;9.88;;;;;;;23.07;72.96;100078.41;5072269;28;20564;-84
2023/07/02 03:32:38;;;;;;;15.65;11.57;;;;;;;23.05;73.05;100083.59;5076287;28;20418;-83
2023/07/02 03:35:32;;;;;;;15.73;11.05;;;;;;;23.11;72.78;100079.19;5073692;28;20063;-81
2023/07/02 03:38:27;;;;;;;16.52;11.35;;;;;;;23.08;73.31;100082.75;5077257;28;20044;-84
2023/07/02 03:41:21;;;;;;;13.80;11.95;;;;;;;23.13;73.33;100085.88;5075255;28;20044;-83
2023/07/02 03:44:16;;;;;;;15.27;10.77;;;;;;;23.20;73.30;100096.09;5059158;28;20056;-82
2023/07/02 03:47:10;;;;;;;16.05;11.27;;;;;;;23.06;73.62;100085.19;5076950;28;20037;-82
2023/07/02 03:50:05;;;;;;;18.77;12.88;;;;;;;23.00;74.10;100093.97;5079036;28;20063;-82
2023/07/02 03:53:00;;;;;;;17.30;11.95;;;;;;;23.01;74.73;100089.19;5071232;28;20051;-82
2023/07/02 03:55:55;;;;;;;12.25;10.48;;;;;;;22.99;76.11;100094.38;5068587;28;20041;-84
2023/07/02 03:58:49;;;;;;;11.90;10.27;;;;;;;23.12;75.56;100100.16;5072276;28;20040;-82
2023/07/02 04:01:43;;;;;;;13.75;10.30;;;;;;;23.17;75.45;100094.94;5065329;28;20044;-84
2023/07/02 04:04:38;;;;;;;13.30;9.38;;;;;;;23.21;74.44;100097.69;5072288;28;20043;-84
2023/07/02 04:07:35;;;;;;;13.00;9.95;;;;;;;23.29;73.56;100099.94;5071848;28;20044;-81
2023/07/02 04:10:22;;;;;;;12.85;10.73;;;;;;;23.32;73.77;100110.19;5070299;28;20048;-82
2023/07/02 04:13:34;;;;;;;12.60;10.23;;;;;;;23.34;72.99;100115.34;5063787;28;20048;-85
2023/07/02 04:16:26;;;;;;;13.43;11.23;;;;;;;23.28;73.27;100106.69;5055928;28;20048;-84
2023/07/02 04:19:20;;;;;;;14.45;10.48;;;;;;;23.28;73.76;100111.44;5053122;28;20036;-84
2023/07/02 04:22:12;;;;;;;13.48;10.27;;;;;;;23.33;72.96;100110.97;5056898;28;20057;-82
2023/07/02 04:25:05;;;;;;;14.10;11.13;;;;;;;23.35;72.97;100114.13;5062360;28;20040;-83
2023/07/02 04:27:58;;;;;;;15.23;10.57;;;;;;;23.35;73.19;100116.91;5065991;28;20041;-82
2023/07/02 04:30:52;;;;;;;15.80;11.82;;;;;;;23.38;72.56;100119.63;5056718;28;20479;-85
2023/07/02 04:33:47;;;;;;;16.17;12.75;;;;;;;23.39;72.55;100120.41;5053451;28;20048;-81
2023/07/02 04:36:42;;;;;;;19.08;12.80;;;;;;;23.30;73.11;100117.38;5038801;28;20060;-81
2023/07/02 04:39:36;;;;;;;14.43;12.52;;;;;;;23.18;74.14;100120.69;5055030;28;20048;-84
2023/07/02 04:42:31;;;;;;;16.38;14.23;;;;;;;23.23;74.13;100123.00;5052773;28;20040;-86
2023/07/02 04:45:23;;;;;;;20.98;14.68;;;;;;;23.29;73.82;100118.56;5079965;28;20040;-85
2023/07/02 04:48:17;;;;;;;14.68;12.93;;;;;;;23.30;73.53;100125.69;5077078;28;20048;-82
2023/07/02 04:51:12;;;;;;;16.25;12.32;;;;;;;23.33;74.06;100116.53;5074456;28;20040;-82
2023/07/02 04:54:06;;;;;;;15.60;12.95;;;;;;;23.34;74.61;100118.09;5063482;28;20043;-83
2023/07/02 04:56:58;;;;;;;14.20;12.05;;;;;;;23.43;73.39;100118.38;5075590;28;20051;-84
2023/07/02 04:59:54;;;;;;;15.40;12.43;;;;;;;23.52;72.75;100115.91;5071856;28;20420;-83
2023/07/02 05:02:46;;;;;;;19.42;13.07;;;;;;;23.61;72.45;100127.28;5073881;28;20039;-82
2023/07/02 05:05:38;;;;;;;18.17;13.88;;;;;;;23.67;73.01;100136.72;5075068;28;20051;-81
2023/07/02 05:08:33;;;;;;;16.48;11.60;;;;;;;23.67;72.51;100131.16;5078389;28;20045;-83
2023/07/02 05:11:30;;;;;;;17.67;12.35;;;;;;;23.70;72.60;100135.88;5076098;28;20040;-83
2023/07/02 05:14:20;;;;;;;12.55;10.55;;;;;;;23.74;72.56;100133.84;5074867;28;20040;-82
2023/07/02 05:17:32;;;;;;;12.95;9.68;;;;;;;23.80;72.19;100140.50;5077012;28;20048;-83
2023/07/02 05:20:29;;;;;;;14.38;10.35;;;;;;;23.86;71.54;100132.50;5073984;28;20043;-84
2023/07/02 05:23:21;;;;;;;13.90;9.98;;;;;;;23.92;70.40;100138.34;5077959;28;20048;-83
2023/07/02 05:26:13;;;;;;;18.63;10.02;;;;;;;23.97;69.37;100143.44;5061690;28;20051;-80
2023/07/02 05:29:05;;;;;;;11.77;9.00;;;;;;;24.10;68.64;100141.63;5065680;28;20044;-81
2023/07/02 05:31:57;;;;;;;13.68;9.25;;;;;;;24.13;68.75;100146.34;5076669;28;20056;-83
2023/07/02 05:34:52;;;;;;;18.27;11.23;;;;;;;24.18;68.42;100140.34;5076566;28;20047;-84
2023/07/02 05:37:46;;;;;;;10.88;6.60;;;;;;;24.20;67.15;100138.72;5051277;28;20048;-84
2023/07/02 05:40:43;;;;;;;11.05;8.80;;;;;;;24.30;66.83;100139.75;5077134;28;20055;-85
2023/07/02 05:43:38;;;;;;;11.25;6.97;;;;;;;24.31;66.15;100130.22;5077094;28;20056;-84
2023/07/02 05:46:31;;;;;;;12.07;8.40;;;;;;;24.43;65.53;100139.94;5076623;28;20541;-84
2023/07/02 05:49:18;;;;;;;10.73;7.97;;;;;;;24.51;65.41;100146.94;5060992;28;20071;-83
2023/07/02 05:52:14;;;;;;;10.23;6.30;;;;;;;24.56;65.17;100147.25;5070357;28;20048;-81
2023/07/02 05:55:10;;;;;;;11.35;7.80;;;;;;;24.56;65.30;100149.25;5056243;28;20048;-82
2023/07/02 05:58:02;;;;;;;10.38;7.95;;;;;;;24.62;65.62;100156.69;5053067;28;20048;-82
2023/07/02 06:00:54;;;;;;;12.75;8.35;;;;;;;24.50;65.54;100156.50;5056832;28;20048;-82
2023/07/02 06:03:51;;;;;;;15.00;7.32;;;;;;;24.49;65.93;100149.34;5054343;28;20051;-82
2023/07/02 06:06:47;;;;;;;10.82;7.82;;;;;;;24.48;66.47;100153.38;5057401;28;20510;-82
2023/07/02 06:09:39;;;;;;;9.80;7.55;;;;;;;24.52;66.19;100159.63;5075038;28;20052;-82
2023/07/02 06:12:37;;;;;;;13.93;7.70;;;;;;;24.68;65.30;100171.66;5073248;28;20078;-82
2023/07/02 06:15:32;;;;;;;9.15;7.03;;;;;;;24.62;65.45;100165.03;5076918;28;20111;-82
2023/07/02 06:18:26;;;;;;;11.50;6.97;;;;;;;24.75;65.53;100169.94;5074848;28;20055;-81
2023/07/02 06:21:16;;;;;;;12.25;7.45;;;;;;;24.69;65.63;100167.66;5064254;28;20047;-81
2023/07/02 06:24:08;;;;;;;12.93;8.63;;;;;;;24.74;65.44;100173.97;5075242;28;20051;-81
2023/07/02 06:27:02;;;;;;;12.43;7.93;;;;;;;24.83;65.05;100171.41;5068533;28;20043;-81
2023/07/02 06:29:57;;;;;;;14.75;9.30;;;;;;;24.77;64.95;100173.88;5070655;28;20051;-83
2023/07/02 06:32:53;;;;;;;13.57;8.20;;;;;;;24.91;64.47;100182.00;5055577;28;20066;-85
2023/07/02 06:35:51;;;;;;;16.02;6.82;;;;;;;25.00;64.31;100187.78;5059170;28;20518;-81
2023/07/02 06:38:46;;;;;;;10.73;7.90;;;;;;;24.90;64.05;100188.78;5067577;28;20048;-79
2023/07/02 06:41:41;;;;;;;10.95;7.72;;;;;;;24.95;64.18;100187.50;5062638;28;20406;-81
2023/07/02 06:44:53;;;;;;;11.38;8.02;;;;;;;25.09;63.86;100187.25;5061531;28;20157;-81
2023/07/02 06:47:48;;;;;;;14.55;8.48;;;;;;;25.10;63.74;100188.78;5068537;28;20402;-83
2023/07/02 06:50:45;;;;;;;11.77;8.13;;;;;;;25.13;64.49;100188.75;5056759;28;20056;-82
2023/07/02 06:53:38;;;;;;;10.52;7.50;;;;;;;25.10;63.76;100180.44;5060140;28;20040;-83
2023/07/02 06:56:34;;;;;;;8.55;6.45;;;;;;;25.23;63.18;100186.19;5065583;28;20052;-82
2023/07/02 06:59:26;;;;;;;;;;;;;;;25.32;62.89;100187.19;5077091;28;20043;-84
2023/07/02 07:02:21;;;;;;;14.35;7.30;;;;;;;25.40;62.46;100190.59;5073319;28;19917;-82
2023/07/02 07:05:35;;;;;;;12.73;8.70;;;;;;;25.48;62.58;100198.38;5074029;28;20430;-84
2023/07/02 07:08:29;;;;;;;11.10;7.28;;;;;;;25.43;62.14;100195.31;5074099;28;20047;-83
2023/07/02 07:11:22;;;;;;;12.07;7.70;;;;;;;25.53;62.36;100194.31;5077615;28;20421;-83
2023/07/02 07:14:14;;;;;;;11.93;7.93;;;;;;;25.54;62.25;100190.31;5073610;28;20051;-82
2023/07/02 07:17:09;;;;;;;13.45;7.88;;;;;;;25.57;61.88;100195.03;5075256;28;20047;-83
2023/07/02 07:20:02;;;;;;;8.48;7.28;;;;;;;25.64;61.43;100197.69;5076800;28;20051;-80
2023/07/02 07:22:55;;;;;;;10.93;8.20;;;;;;;25.79;60.94;100204.53;5078625;28;20044;-83
2023/07/02 07:25:50;;;;;;;12.80;8.32;;;;;;;25.81;60.51;100207.66;5078439;28;20497;-83
2023/07/02 07:28:43;;;;;;;7.97;6.22;;;;;;;25.88;60.50;100209.50;5075617;28;20513;-85
2023/07/02 07:31:38;;;;;;;12.20;8.63;;;;;;;25.81;61.38;100201.28;5071363;28;20059;-82
2023/07/02 07:34:25;;;;;;;16.38;9.63;;;;;;;25.91;60.71;100203.06;5070215;28;20039;-82
2023/07/02 07:37:21;;;;;;;14.20;9.30;;;;;;;26.11;60.33;100203.78;5066786;28;20047;-84
2023/07/02 07:40:18;;;;;;;15.65;9.05;;;;;;;26.20;59.62;100204.00;5075837;28;20044;-84
2023/07/02 07:43:13;;;;;;;10.35;7.53;;;;;;;26.31;59.26;100206.56;5070599;28;20048;-82
2023/07/02 07:46:07;;;;;;;14.25;8.05;;;;;;;26.41;58.53;100201.94;5060725;28;20124;-82
2023/07/02 07:48:59;;;;;;;12.32;8.48;;;;;;;26.45;59.54;100211.00;5076755;28;20063;-84
2023/07/02 07:51:53;;;;;;;12.82;8.80;;;;;;;26.38;59.38;100209.94;5070630;28;20043;-83
2023/07/02 07:54:47;;;;;;;12.05;8.50;;;;;;;26.36;58.77;100204.00;5073497;28;20043;-81
2023/07/02 07:57:40;;;;;;;;;;;;;;;26.46;58.93;100220.94;5075942;28;20407;-81
2023/07/02 08:00:27;;;;;;;13.00;9.30;;;;;;;26.51;58.80;100209.28;5076353;28;20512;-82
2023/07/02 08:03:19;;;;;;;13.35;8.73;;;;;;;26.29;59.13;100212.56;5079555;28;20044;-83
2023/07/02 08:06:12;;;;;;;14.18;9.15;;;;;;;26.23;59.32;100216.28;5074126;28;20663;-84
2023/07/02 08:09:06;;;;;;;13.55;10.07;;;;;;;26.34;60.86;100222.41;5064473;28;20051;-84
2023/07/02 08:12:18;;;;;;;15.27;10.35;;;;;;;26.27;60.77;100211.41;5077986;28;20119;-83
2023/07/02 08:15:14;;;;;;;13.52;10.90;;;;;;;26.25;59.91;100213.88;5078904;28;20047;-86
2023/07/02 08:18:03;;;;;;;13.13;10.20;;;;;;;26.15;60.35;100217.66;5068011;28;20044;-84
2023/07/02 08:20:58;;;;;;;14.90;10.85;;;;;;;26.18;59.38;100214.78;5082184;28;20043;-84
2023/07/02 08:23:50;;;;;;;18.73;11.95;;;;;;;26.16;60.29;100214.41;5061574;28;20521;-84
2023/07/02 08:26:44;;;;;;;14.82;10.65;;;;;;;26.25;61.00;100209.09;5063986;28;20045;-86
2023/07/02 08:29:40;;;;;;;10.77;8.48;;;;;;;26.32;59.45;100214.47;5073028;28;20037;-83
2023/07/02 08:32:34;;;;;;;13.98;9.45;;;;;;;26.41;59.39;100216.69;5082848;28;20536;-84
2023/07/02 08:35:29;;;;;;;16.67;10.27;;;;;;;26.56;58.97;100212.31;5075419;28;20049;-85
2023/07/02 08:38:20;;;;;;;12.90;7.30;;;;;;;26.51;58.17;100214.84;5061676;28;20052;-84
2023/07/02 08:41:07;;;;;;;10.80;8.60;;;;;;;26.53;58.40;100215.97;5080428;28;20036;-86
2023/07/02 08:44:04;;;;;;;12.95;10.25;;;;;;;26.54;59.42;100225.13;5049664;28;20072;-87
2023/07/02 08:46:57;;;;;;;13.70;11.27;;;;;;;26.45;59.50;100227.75;5059361;28;20053;-85
2023/07/02 08:49:50;;;;;;;18.95;11.98;;;;;;;26.35;59.58;100224.78;5075559;28;20048;-83
2023/07/02 08:52:44;;;;;;;11.75;9.32;;;;;;;26.33;59.02;100227.19;5079969;28;20028;-85
2023/07/02 08:55:39;;;;;;;17.75;13.02;;;;;;;26.31;59.02;100232.41;5078408;28;20043;-86
2023/07/02 08:58:32;;;;;;;19.73;12.77;;;;;;;26.38;58.72;100220.31;5074340;28;20047;-86
2023/07/02 09:01:27;;;;;;;12.40;7.15;;;;;;;26.32;58.58;100220.06;5083668;28;20037;-85
2023/07/02 09:04:23;;;;;;;17.00;12.75;;;;;;;26.49;58.79;100226.44;5138385;22;20067;-79
2023/07/02 09:07:18;;;;;;;21.60;12.77;;;;;;;26.44;58.37;100229.75;5075317;28;20056;-79
2023/07/02 09:10:10;;;;;;;17.65;12.20;;;;;;;26.62;58.86;100226.50;5080728;28;20055;-79
2023/07/02 09:13:09;;;;;;;17.17;11.85;;;;;;;26.69;57.21;100223.53;5077424;28;20115;-79
2023/07/02 09:16:04;;;;;;;15.80;12.55;;;;;;;26.71;58.18;100229.47;5086524;28;20047;-79
2023/07/02 09:19:04;;;;;;;13.48;8.20;;;;;;;26.76;57.96;100226.94;5078790;28;20043;-79
2023/07/02 09:21:59;;;;;;;12.05;8.65;;;;;;;26.75;57.26;100225.38;5081134;28;20043;-78
2023/07/02 09:24:57;;;;;;;;;;;;;;;26.91;57.89;100218.25;5082348;28;20039;-79
2023/07/02 09:27:49;;;;;;;16.58;13.18;;;;;;;27.05;56.39;100227.00;5076089;28;19913;-80
2023/07/02 09:30:51;;;;;;;18.38;10.98;;;;;;;27.07;56.43;100232.94;5084907;28;20047;-80
2023/07/02 09:33:45;;;;;;;12.73;8.80;;;;;;;27.10;55.75;100217.31;5079647;28;20035;-79
2023/07/02 09:36:40;;;;;;;10.23;8.52;;;;;;;27.00;56.11;100219.19;5083977;28;20048;-78
2023/07/02 09:39:36;;;;;;;11.57;8.25;;;;;;;26.81;56.11;100220.84;5084162;28;20056;-79
2023/07/02 09:42:31;;;;;;;14.95;11.43;;;;;;;26.83;57.14;100218.38;5084348;28;20047;-79
2023/07/02 09:45:25;;;;;;;19.50;11.10;;;;;;;26.96;56.79;100224.06;5090238;28;20071;-78
2023/07/02 09:48:17;;;;;;;8.40;7.53;;;;;;;26.87;56.11;100223.88;5087263;28;20044;-78
2023/07/02 09:51:09;;;;;;;;;;;;;;;26.95;56.94;100228.09;5086322;28;20094;-79
2023/07/02 09:54:03;;;;;;;12.77;8.30;;;;;;;26.91;56.46;100219.03;5087285;28;19912;-79
2023/07/02 09:56:58;;;;;;;9.55;7.47;;;;;;;26.79;56.30;100220.47;5085461;28;20055;-79
2023/07/02 09:59:50;;;;;;;14.05;7.45;;;;;;;26.75;56.54;100219.00;5088779;28;20047;-79
2023/07/02 10:02:49;;;;;;;10.13;7.03;;;;;;;26.66;57.00;100216.06;5080085;28;20044;-79
2023/07/02 10:05:41;;;;;;;9.00;7.00;;;;;;;26.56;56.50;100217.91;5076229;28;20047;-79
2023/07/02 10:08:36;;;;;;;15.65;10.13;;;;;;;26.63;57.98;100211.34;5086967;28;20048;-81
2023/07/02 10:11:37;;;;;;;15.60;13.05;;;;;;;26.84;56.83;100213.59;5085933;28;20048;-79
2023/07/02 10:14:45;;;;;;;15.00;9.18;;;;;;;26.85;55.80;100209.56;5084934;28;20059;-80
2023/07/02 10:17:38;;;;;;;8.98;7.68;;;;;;;26.89;56.86;100210.28;5081938;28;20036;-81
2023/07/02 10:20:44;;;;;;;15.13;9.75;;;;;;;26.82;56.29;100211.22;5084379;28;20052;-81
2023/07/02 10:23:40;;;;;;;13.93;8.23;;;;;;;26.84;56.92;100210.78;5087362;28;20048;-81
2023/07/02 10:26:34;;;;;;;13.90;11.88;;;;;;;27.05;55.79;100204.69;5084551;28;20051;-81
2023/07/02 10:29:29;;;;;;;16.83;8.88;;;;;;;27.01;55.68;100209.59;5087423;28;20041;-80
2023/07/02 10:32:33;;;;;;;10.73;7.88;;;;;;;27.04;55.73;100205.13;5080937;28;20044;-81
2023/07/02 10:35:25;;;;;;;9.98;7.93;;;;;;;27.16;55.04;100202.38;5086308;28;20056;-81
2023/07/02 10:38:27;;;;;;;12.57;7.85;;;;;;;27.16;54.88;100198.81;5077621;28;20047;-79
2023/07/02 10:41:31;;;;;;;10.18;7.75;;;;;;;27.02;55.05;100197.16;5076911;28;20528;-80
2023/07/02 10:44:25;;;;;;;9.10;5.93;;;;;;;27.04;54.42;100194.72;5080959;28;20039;-80
2023/07/02 10:47:17;;;;;;;;;;;;;;;26.99;54.89;100205.66;5082098;28;20043;-80
2023/07/02 10:50:30;;;;;;;8.00;5.70;;;;;;;26.88;55.57;100199.56;5088079;28;19912;-80
2023/07/02 10:53:24;;;;;;;10.57;6.50;;;;;;;27.03;55.27;100189.59;5078500;28;20581;-80
2023/07/02 10:56:20;;;;;;;9.93;8.45;;;;;;;27.12;54.71;100200.94;5084759;28;20052;-81
2023/07/02 10:59:14;;;;;;;10.45;6.30;;;;;;;27.02;54.70;100194.38;5075047;28;20043;-81
2023/07/02 11:02:07;;;;;;;;;;;;;;;26.95;55.16;100189.00;5076780;28;20051;-80
2023/07/02 11:05:02;;;;;;;7.07;6.18;;;;;;;26.81;55.97;100200.53;5077758;28;19912;-80
2023/07/02 11:07:57;;;;;;;10.02;6.65;;;;;;;27.02;55.24;100199.97;5081900;28;20040;-80
2023/07/02 11:10:42;;;;;;;8.13;7.32;;;;;;;27.18;55.14;100197.13;5081219;28;20039;-80
2023/07/02 11:13:45;;;;;;;7.75;6.32;;;;;;;26.94;54.57;100183.84;5083215;28;20047;-80
2023/07/02 11:16:41;;;;;;;9.38;6.72;;;;;;;26.93;54.83;100191.44;5086624;28;20044;-80
2023/07/02 11:19:35;;;;;;;13.02;5.97;;;;;;;26.96;54.76;100195.38;5084766;28;20059;-80
2023/07/02 11:22:31;;;;;;;;;;;;;;;27.07;54.95;100190.28;5081231;28;20412;-80
2023/07/02 11:25:24;;;;;;;13.13;8.25;;;;;;;27.05;55.48;100182.34;5083741;28;20614;-79
2023/07/02 11:28:16;;;;;;;13.75;7.68;;;;;;;27.07;54.53;100191.06;5069133;28;20520;-79
2023/07/02 11:31:07;;;;;;;8.05;6.63;;;;;;;27.06;54.61;100183.94;5073518;28;20413;-79
2023/07/02 11:34:01;;;;;;;13.80;10.30;;;;;;;27.50;52.79;100196.25;5077304;28;20047;-81
2023/07/02 11:36:53;;;;;;;;;;;;;;;27.59;53.32;100187.22;5075986;28;20040;-80
2023/07/02 11:39:48;;;;;;;13.20;7.07;;;;;;;27.44;53.35;100186.03;5083411;28;19913;-80
2023/07/02 11:42:40;;;;;;;;;;;;;;;27.20;54.35;100186.31;5079390;28;20047;-79
2023/07/02 11:45:35;;;;;;;8.35;5.68;;;;;;;27.05;54.62;100176.78;5081012;28;19924;-79
2023/07/02 11:48:27;;;;;;;;;;;;;;;27.27;54.12;100181.75;5082868;28;20048;-80
2023/07/02 11:51:22;;;;;;;9.93;5.82;;;;;;;27.29;53.73;100176.50;5082110;28;19912;-81
2023/07/02 11:54:11;;;;;;;12.60;7.80;;;;;;;27.16;54.40;100176.47;5080646;28;20420;-79
2023/07/02 11:57:03;;;;;;;8.88;6.70;;;;;;;27.19;54.34;100173.56;5083055;28;20039;-80
2023/07/02 11:59:56;;;;;;;;;;;;;;;27.10;55.12;100173.44;5079411;28;20048;-79
2023/07/02 12:02:52;;;;;;;12.20;7.55;;;;;;;26.92;55.03;100178.72;5091321;28;20540;-79
2023/07/02 12:05:47;;;;;;;11.63;7.90;;;;;;;26.85;55.66;100176.09;5101238;28;20051;-80
2023/07/02 12:08:41;;;;;;;10.20;8.18;;;;;;;27.16;54.80;100171.69;5098246;28;20444;-80
2023/07/02 12:11:33;;;;;;;9.63;6.72;;;;;;;27.18;53.77;100174.78;5082510;28;20043;-79
2023/07/02 12:14:26;;;;;;;7.30;6.13;;;;;;;27.34;53.66;100173.16;5079474;28;20528;-79
2023/07/02 12:17:20;;;;;;;7.65;6.18;;;;;;;27.37;53.39;100175.09;5079735;28;20040;-79
2023/07/02 12:20:16;;;;;;;13.82;8.75;;;;;;;27.50;53.67;100173.13;5084127;28;20039;-81
2023/07/02 12:23:11;;;;;;;14.68;8.95;;;;;;;27.87;52.40;100168.81;5084988;28;20055;-80
2023/07/02 12:26:05;;;;;;;12.52;6.70;;;;;;;28.10;51.19;100171.28;5097645;28;20047;-83
2023/07/02 12:29:00;;;;;;;10.60;7.05;;;;;;;28.36;51.73;100177.66;5094085;28;20047;-83
2023/07/02 12:31:54;;;;;;;9.60;6.85;;;;;;;27.96;52.27;100174.53;5087623;28;20047;-81
2023/07/02 12:34:49;;;;;;;53.53;13.20;;;;;;;28.03;51.74;100172.31;5093782;28;20047;-82
2023/07/02 12:37:54;;;;;;;406.45;96.03;;;;;;;28.00;53.02;100172.41;5078454;28;20037;-83
2023/07/02 12:40:48;;;;;;;42.75;16.95;;;;;;;28.13;51.01;100164.03;5086670;28;20036;-83
2023/07/02 12:43:41;;;;;;;143.68;36.67;;;;;;;27.96;53.05;100171.72;5098775;28;20043;-82
2023/07/02 12:46:35;;;;;;;76.07;22.92;;;;;;;27.90;53.20;100165.91;5095073;28;20047;-81
2023/07/02 12:49:30;;;;;;;50.75;16.58;;;;;;;27.95;52.89;100170.16;5097668;28;20032;-81
2023/07/02 12:52:22;;;;;;;;;;;;;;;27.84;52.60;100170.50;5093790;28;20040;-81
2023/07/02 12:55:16;;;;;;;22.20;9.63;;;;;;;27.82;52.27;100164.56;5095034;28;19912;-80
2023/07/02 12:58:11;;;;;;;15.50;8.45;;;;;;;28.04;51.44;100173.06;5095656;28;20051;-80
2023/07/02 13:01:05;;;;;;;15.65;8.60;;;;;;;28.03;51.86;100163.91;5086541;28;20063;-79
2023/07/02 13:04:00;;;;;;;15.02;7.95;;;;;;;27.93;52.53;100165.03;5084928;28;20051;-81
2023/07/02 13:06:55;;;;;;;12.10;7.40;;;;;;;27.92;51.41;100165.47;5083570;28;20055;-81
2023/07/02 13:09:47;;;;;;;10.60;6.53;;;;;;;28.16;50.37;100163.13;5102645;28;20527;-80
2023/07/02 13:12:39;;;;;;;13.15;6.65;;;;;;;27.82;51.28;100161.78;5103584;28;20035;-80
2023/07/02 13:15:32;;;;;;;9.25;6.53;;;;;;;27.93;49.02;100162.25;5107949;28;20047;-81
2023/07/02 13:18:24;;;;;;;7.88;6.10;;;;;;;27.96;49.97;100166.94;5104196;28;20047;-81
2023/07/02 13:21:16;;;;;;;9.70;6.22;;;;;;;28.01;49.93;100163.56;5087480;28;20047;-82
2023/07/02 13:24:11;;;;;;;8.10;6.43;;;;;;;28.27;48.30;100163.56;5102055;28;20039;-81
2023/07/02 13:27:06;;;;;;;7.72;5.88;;;;;;;28.34;47.43;100152.94;5100951;28;20535;-81
2023/07/02 13:29:58;;;;;;;7.60;5.95;;;;;;;27.89;49.78;100155.16;5079819;28;20047;-84